Estación Meteorológica Peña el Pijo (Robertgarden) [ 05/26/19 19:25:07 CEST ]

Fecha Hora Presion(HPa) Temp (°C) Humedad % Rocio (°C) Viento ( m/s) Direccion Lluvia 1Hora(mm) Lluvia 24H(mm) LLuvia Total(mm)
2018-Dec-16 01:01:39 1013.000 4.7 83 2.0         160.58
2018-Dec-16 02:04:09 1012.000 3.4 83 0.8         160.58
2018-Dec-16 03:03:11 1011.800 4.2 85 1.9         160.58
2018-Dec-16 04:01:42 1011.500 4.4 85 2.1         160.58
2018-Dec-16 05:01:42 1011.000 3.8 86 1.7         160.58
2018-Dec-16 06:01:47 1010.400 3.3 86 1.2         160.58
2018-Dec-16 07:01:35 1010.500 6.3 87 4.3         160.58
2018-Dec-16 08:01:49 1010.000 6.2 85 3.8         160.58
2018-Dec-16 09:01:41 1010.200 7.5 76 3.5         160.58
2018-Dec-16 10:01:30 1010.700 11.9 46 0.9         160.58
2018-Dec-16 11:01:55 1011.100 14.9 28 -3.6         160.58
2018-Dec-16 12:01:37 1011.000 14.6 31 -2.4         160.58
2018-Dec-16 13:01:44 1011.100 14.2 48 3.3         160.58
2018-Dec-16 14:01:58 1010.100 14.2 59 6.3         160.58
2018-Dec-16 15:01:39 1010.100 14.8 61 7.3 0.6 WNW     160.58
2018-Dec-16 16:01:44 1011.000 12.1 68 6.3 0.9 NW     160.58
2018-Dec-16 17:01:59 1011.500 10.9 72 6.1 2.4 WNW     160.58
2018-Dec-16 18:01:50 1011.800 10.1 74 5.7 1.4 WNW     160.58
2018-Dec-16 19:01:45 1011.700 9.5 73 4.9 1.6 NW     160.58
2018-Dec-16 20:01:43 1012.100 8.9 69 3.5 3.2 N     160.58
2018-Dec-16 21:01:56 1012.100 8.3 67 2.5         160.58
2018-Dec-16 22:01:55 1012.700 7.8 68 2.3 1.1 NNW     160.58
2018-Dec-16 23:02:01 1013.700 7.3 69 2.0         160.58

Temperatura Máxima:14°    Temperatura Mínima:
Presión Máxima:1013.700 Hpa    Presión Mínima:1010.000 Hpa


Volver